createdAt,value
2023-02-17T00:01:13.772Z,10.90
2023-02-17T00:03:40.946Z,10.50
2023-02-17T00:06:09.500Z,10.98
2023-02-17T00:08:36.729Z,11.35
2023-02-17T00:11:04.001Z,13.52
2023-02-17T00:13:31.089Z,12.18
2023-02-17T00:15:58.253Z,12.50
2023-02-17T00:18:25.548Z,11.90
2023-02-17T00:20:52.690Z,12.63
2023-02-17T00:23:19.890Z,13.07
2023-02-17T00:25:47.123Z,13.73
2023-02-17T00:28:14.324Z,12.25
2023-02-17T00:30:41.442Z,11.60
2023-02-17T00:33:08.661Z,13.77
2023-02-17T00:35:39.622Z,13.43
2023-02-17T00:38:06.735Z,14.65
2023-02-17T00:40:33.834Z,14.30
2023-02-17T00:43:00.906Z,14.25
2023-02-17T00:45:27.959Z,14.30
2023-02-17T00:47:55.015Z,13.65
2023-02-17T00:50:22.155Z,13.77
2023-02-17T00:52:49.230Z,13.95
2023-02-17T00:55:16.414Z,13.00
2023-02-17T00:57:43.500Z,14.25
2023-02-17T01:00:10.816Z,14.20
2023-02-17T01:02:37.949Z,14.38
2023-02-17T01:05:05.240Z,14.25
2023-02-17T01:07:32.361Z,12.25
2023-02-17T01:09:59.410Z,14.30
2023-02-17T01:12:26.535Z,14.27
2023-02-17T01:14:53.624Z,13.48
2023-02-17T01:17:20.702Z,15.50
2023-02-17T01:19:47.758Z,14.18
2023-02-17T01:22:14.922Z,15.13
2023-02-17T01:24:41.943Z,14.90
2023-02-17T01:27:09.140Z,14.38
2023-02-17T01:29:36.401Z,15.38
2023-02-17T01:32:03.604Z,14.60
2023-02-17T01:34:30.758Z,15.60
2023-02-17T01:36:57.825Z,15.43
2023-02-17T01:39:24.907Z,15.80
2023-02-17T01:41:52.013Z,15.80
2023-02-17T01:44:20.799Z,16.67
2023-02-17T01:46:49.625Z,15.82
2023-02-17T01:49:49.062Z,16.73
2023-02-17T01:52:24.470Z,15.68
2023-02-17T01:55:00.280Z,17.05
2023-02-17T01:57:28.033Z,16.90
2023-02-17T01:59:55.433Z,15.77
2023-02-17T02:02:23.159Z,15.63
2023-02-17T02:04:52.152Z,16.27
2023-02-17T02:07:26.781Z,16.42
2023-02-17T02:09:55.174Z,15.45
2023-02-17T02:12:22.201Z,15.48
2023-02-17T02:14:50.302Z,15.40
2023-02-17T02:17:35.818Z,15.98
2023-02-17T02:20:21.496Z,15.52
2023-02-17T02:23:13.021Z,16.17
2023-02-17T02:25:59.127Z,16.00
2023-02-17T02:28:38.673Z,16.75
2023-02-17T02:31:35.102Z,14.95
2023-02-17T02:34:05.866Z,15.55
2023-02-17T02:36:42.609Z,16.50
2023-02-17T02:39:12.772Z,16.65
2023-02-17T02:42:09.083Z,17.25
2023-02-17T02:44:36.164Z,17.00
2023-02-17T02:47:05.641Z,17.95
2023-02-17T02:49:34.214Z,18.08
2023-02-17T02:52:07.113Z,16.63
2023-02-17T02:54:56.713Z,17.77
2023-02-17T02:57:36.318Z,17.77
2023-02-17T03:00:12.575Z,17.58
2023-02-17T03:02:44.123Z,17.88
2023-02-17T03:05:14.106Z,16.83
2023-02-17T03:07:48.301Z,16.80
2023-02-17T03:10:15.732Z,16.77
2023-02-17T03:12:43.009Z,15.80
2023-02-17T03:15:14.973Z,16.30
2023-02-17T03:20:09.897Z,15.05
2023-02-17T03:22:42.503Z,14.10
2023-02-17T03:25:09.727Z,15.90
2023-02-17T03:27:36.860Z,13.27
2023-02-17T03:30:06.446Z,13.90
2023-02-17T03:32:33.662Z,14.68
2023-02-17T03:35:00.759Z,13.43
2023-02-17T03:37:27.888Z,13.75
2023-02-17T03:39:56.064Z,12.88
2023-02-17T03:42:23.583Z,14.02
2023-02-17T03:44:50.648Z,12.73
2023-02-17T03:47:17.715Z,13.55
2023-02-17T03:49:44.885Z,13.10
2023-02-17T03:52:12.108Z,12.23
2023-02-17T03:54:39.368Z,12.35
2023-02-17T03:57:06.462Z,11.88
2023-02-17T03:59:33.649Z,12.38
2023-02-17T04:02:00.698Z,11.77
2023-02-17T04:04:27.837Z,12.50
2023-02-17T04:06:54.948Z,11.52
2023-02-17T04:09:22.040Z,12.13
2023-02-17T04:11:49.105Z,12.48
2023-02-17T04:14:16.215Z,12.05
2023-02-17T04:16:43.281Z,10.48
2023-02-17T04:19:10.385Z,11.38
2023-02-17T04:21:37.501Z,11.38
2023-02-17T04:24:04.754Z,10.43
2023-02-17T04:26:31.891Z,10.52
2023-02-17T04:28:59.033Z,10.48
2023-02-17T04:31:28.176Z,10.18
2023-02-17T04:33:55.409Z,9.93
2023-02-17T04:36:22.934Z,10.70
2023-02-17T04:38:50.107Z,10.65
2023-02-17T04:41:17.244Z,9.63
2023-02-17T04:43:44.356Z,9.55
2023-02-17T04:46:11.968Z,9.70
2023-02-17T04:48:39.302Z,12.10
2023-02-17T04:51:06.696Z,10.18
2023-02-17T04:53:34.037Z,10.38
2023-02-17T04:56:01.180Z,11.00
2023-02-17T04:58:28.325Z,10.90
2023-02-17T05:00:55.456Z,10.95
2023-02-17T05:03:22.797Z,11.15
2023-02-17T05:05:50.175Z,10.23
2023-02-17T05:08:17.269Z,11.38
2023-02-17T05:10:44.372Z,10.60
2023-02-17T05:13:11.480Z,10.32
2023-02-17T05:15:38.623Z,10.68
2023-02-17T05:18:05.815Z,10.02
2023-02-17T05:20:32.928Z,9.80
2023-02-17T05:23:00.968Z,9.73
2023-02-17T05:25:28.101Z,10.35
2023-02-17T05:27:55.306Z,11.00
2023-02-17T05:30:22.487Z,9.50
2023-02-17T05:32:49.589Z,9.85
2023-02-17T05:35:16.847Z,10.43
2023-02-17T05:37:43.958Z,9.30
2023-02-17T05:40:11.277Z,9.10
2023-02-17T05:42:38.347Z,9.23
2023-02-17T05:45:05.659Z,9.93
2023-02-17T05:47:32.891Z,10.75
2023-02-17T05:49:59.983Z,10.13
2023-02-17T05:52:27.130Z,10.43
2023-02-17T05:54:54.312Z,11.45
2023-02-17T05:57:21.463Z,10.00
2023-02-17T05:59:48.510Z,11.57
2023-02-17T06:02:15.608Z,10.93
2023-02-17T06:04:42.859Z,11.18
2023-02-17T06:07:10.057Z,13.43
2023-02-17T06:09:37.116Z,12.48
2023-02-17T06:12:04.597Z,12.27
2023-02-17T06:14:31.785Z,13.02
2023-02-17T06:17:01.173Z,13.70
2023-02-17T06:19:28.880Z,13.48
2023-02-17T06:21:57.139Z,12.73
2023-02-17T06:24:25.122Z,13.25
2023-02-17T06:26:52.262Z,14.98
2023-02-17T06:29:19.432Z,14.32
2023-02-17T06:31:46.669Z,14.93
2023-02-17T06:34:13.919Z,14.45
2023-02-17T06:36:41.071Z,15.90
2023-02-17T06:39:08.148Z,16.15
2023-02-17T06:41:35.221Z,16.90
2023-02-17T06:44:02.402Z,16.20
2023-02-17T06:46:29.559Z,15.20
2023-02-17T06:48:56.674Z,15.23
2023-02-17T06:51:23.753Z,15.57
2023-02-17T06:53:50.826Z,16.38
2023-02-17T06:56:19.792Z,16.35
2023-02-17T06:58:48.283Z,15.75
2023-02-17T07:01:19.510Z,15.93
2023-02-17T07:03:46.764Z,14.90
2023-02-17T07:06:13.872Z,13.98
2023-02-17T07:08:41.305Z,14.23
2023-02-17T07:11:09.450Z,13.55
2023-02-17T07:13:36.641Z,12.75
2023-02-17T07:16:03.973Z,13.02
2023-02-17T07:18:31.173Z,13.77
2023-02-17T07:20:58.349Z,13.98
2023-02-17T07:23:25.684Z,11.70
2023-02-17T07:25:52.761Z,12.13
2023-02-17T07:28:19.971Z,12.48
2023-02-17T07:30:47.144Z,12.02
2023-02-17T07:33:14.282Z,12.75
2023-02-17T07:35:44.658Z,11.55
2023-02-17T07:38:11.983Z,12.20
2023-02-17T07:40:39.925Z,12.38
2023-02-17T07:43:07.295Z,11.88
2023-02-17T07:45:34.640Z,12.90
2023-02-17T07:48:01.826Z,12.73
2023-02-17T07:50:28.911Z,14.07
2023-02-17T07:52:56.003Z,13.13
2023-02-17T07:55:24.240Z,12.88
2023-02-17T07:57:51.427Z,13.63
2023-02-17T08:00:18.762Z,13.75
2023-02-17T08:02:46.056Z,13.07
2023-02-17T08:05:13.155Z,12.73
2023-02-17T08:07:40.294Z,12.95
2023-02-17T08:10:26.848Z,13.07
2023-02-17T08:13:12.684Z,11.57
2023-02-17T08:15:39.851Z,12.52
2023-02-17T08:18:07.171Z,11.30
2023-02-17T08:20:35.296Z,10.18
2023-02-17T08:23:03.711Z,11.23
2023-02-17T08:25:34.418Z,11.93
2023-02-17T08:28:02.281Z,11.63
2023-02-17T08:30:29.746Z,11.23
2023-02-17T08:32:56.925Z,11.15
2023-02-17T08:35:24.101Z,10.88
2023-02-17T08:37:51.535Z,10.20
2023-02-17T08:40:19.382Z,11.77
2023-02-17T08:42:46.656Z,11.18
2023-02-17T08:45:14.489Z,9.85
2023-02-17T08:47:41.893Z,10.95
2023-02-17T08:50:09.740Z,9.43
2023-02-17T08:52:37.004Z,9.73
2023-02-17T08:55:04.517Z,9.98
2023-02-17T08:57:31.611Z,9.95
2023-02-17T08:59:58.786Z,8.90
2023-02-17T09:02:25.932Z,8.52
2023-02-17T09:04:53.170Z,8.77
2023-02-17T09:07:20.340Z,8.88
2023-02-17T09:09:47.494Z,8.10
2023-02-17T09:12:14.722Z,8.43
2023-02-17T09:14:41.847Z,7.82
2023-02-17T09:17:09.173Z,7.38
2023-02-17T09:19:39.020Z,7.68
2023-02-17T09:22:06.134Z,7.30
2023-02-17T09:24:34.965Z,7.65
2023-02-17T09:27:02.331Z,6.90
2023-02-17T09:29:29.515Z,6.38
2023-02-17T09:31:56.732Z,5.20
2023-02-17T09:34:23.929Z,6.28
2023-02-17T09:36:51.273Z,6.82
2023-02-17T09:39:18.708Z,6.28
2023-02-17T09:41:48.204Z,5.20
2023-02-17T09:44:21.275Z,5.25
2023-02-17T09:47:08.712Z,4.78
2023-02-17T09:49:39.625Z,5.15
2023-02-17T09:52:12.813Z,4.82
2023-02-17T09:54:42.878Z,4.72
2023-02-17T09:57:13.353Z,4.78
2023-02-17T09:59:44.025Z,5.00
2023-02-17T10:02:24.998Z,4.85
2023-02-17T10:04:52.860Z,4.47
2023-02-17T10:07:38.876Z,4.50
2023-02-17T10:10:15.242Z,4.53
2023-02-17T10:12:46.072Z,4.85
2023-02-17T10:15:17.885Z,4.05
2023-02-17T10:20:31.474Z,4.05
2023-02-17T10:23:02.539Z,4.32
2023-02-17T10:25:45.261Z,3.53
2023-02-17T10:28:18.575Z,4.03
2023-02-17T10:30:59.185Z,4.68
2023-02-17T10:33:42.949Z,4.25
2023-02-17T10:36:19.812Z,4.15
2023-02-17T10:38:53.925Z,3.92
2023-02-17T10:41:23.540Z,3.70
2023-02-17T10:43:51.401Z,3.85
2023-02-17T10:46:19.827Z,3.58
2023-02-17T10:48:51.286Z,4.03
2023-02-17T10:51:20.718Z,3.15
2023-02-17T10:54:10.833Z,3.25
2023-02-17T10:56:44.293Z,3.47
2023-02-17T10:59:17.513Z,3.60
2023-02-17T11:01:44.579Z,4.30
2023-02-17T11:04:14.038Z,3.30
2023-02-17T11:06:45.655Z,3.47
2023-02-17T11:09:28.525Z,3.70
2023-02-17T11:12:01.713Z,3.83
2023-02-17T11:14:30.232Z,4.72
2023-02-17T11:16:59.554Z,3.17
2023-02-17T11:19:26.699Z,3.05
2023-02-17T11:21:54.924Z,3.05
2023-02-17T11:24:22.367Z,3.35
2023-02-17T11:26:57.329Z,3.00
2023-02-17T11:29:24.870Z,3.00
2023-02-17T11:31:56.540Z,4.00
2023-02-17T11:34:26.248Z,3.85
2023-02-17T11:37:11.905Z,3.65
2023-02-17T11:39:43.481Z,3.78
2023-02-17T11:42:27.438Z,3.30
2023-02-17T11:44:56.218Z,3.33
2023-02-17T11:47:23.338Z,3.35
2023-02-17T11:50:09.230Z,3.30
2023-02-17T11:52:43.774Z,3.22
2023-02-17T11:55:10.830Z,3.35
2023-02-17T11:57:53.308Z,3.22
2023-02-17T12:00:28.848Z,2.58
2023-02-17T12:03:01.886Z,2.97
2023-02-17T12:05:31.856Z,2.28
2023-02-17T12:08:07.441Z,2.40
2023-02-17T12:10:40.695Z,2.50
2023-02-17T12:13:13.639Z,2.28
2023-02-17T12:15:56.217Z,2.53
2023-02-17T12:18:38.804Z,1.92
2023-02-17T12:21:18.099Z,1.58
2023-02-17T12:24:03.937Z,1.55
2023-02-17T12:26:34.636Z,1.88
2023-02-17T12:29:04.643Z,2.80
2023-02-17T12:31:40.869Z,2.22
2023-02-17T12:34:30.838Z,2.28
2023-02-17T12:36:59.441Z,2.10
2023-02-17T12:39:29.313Z,2.00
2023-02-17T12:42:00.253Z,2.20
2023-02-17T12:44:29.579Z,1.80
2023-02-17T12:47:03.056Z,1.98
2023-02-17T12:49:36.297Z,1.92
2023-02-17T12:52:07.354Z,2.47
2023-02-17T12:54:38.993Z,2.20
2023-02-17T12:57:14.725Z,2.00
2023-02-17T12:59:43.910Z,2.22
2023-02-17T13:02:19.152Z,2.65
2023-02-17T13:04:48.642Z,2.00
2023-02-17T13:07:23.247Z,2.08
2023-02-17T13:09:51.542Z,2.25
2023-02-17T13:12:18.801Z,2.50
2023-02-17T13:14:50.355Z,2.60
2023-02-17T13:17:30.805Z,1.67
2023-02-17T13:20:07.066Z,2.22
2023-02-17T13:22:34.474Z,1.88
2023-02-17T13:25:01.997Z,2.05
2023-02-17T13:27:29.068Z,2.22
2023-02-17T13:30:00.632Z,2.20
2023-02-17T13:32:29.585Z,2.50
2023-02-17T13:35:00.839Z,2.20
2023-02-17T13:37:34.204Z,2.55
2023-02-17T13:40:02.568Z,2.22
2023-02-17T13:42:29.681Z,2.38
2023-02-17T13:44:56.847Z,2.00
2023-02-17T13:47:37.858Z,1.95
2023-02-17T13:50:05.620Z,1.75
2023-02-17T13:52:33.167Z,2.60
2023-02-17T13:55:04.766Z,2.10
2023-02-17T13:57:33.224Z,2.85
2023-02-17T14:00:06.346Z,2.33
2023-02-17T14:02:36.395Z,2.20
2023-02-17T14:05:10.799Z,2.70
2023-02-17T14:07:37.995Z,2.13
2023-02-17T14:10:05.482Z,2.03
2023-02-17T14:12:32.625Z,2.60
2023-02-17T14:14:59.694Z,2.38
2023-02-17T14:17:30.417Z,1.92
2023-02-17T14:20:00.729Z,1.95
2023-02-17T14:22:32.661Z,2.45
2023-02-17T14:27:27.212Z,3.90
2023-02-17T14:29:54.341Z,2.05
2023-02-17T14:32:28.512Z,2.67
2023-02-17T14:34:55.596Z,2.20
2023-02-17T14:37:25.872Z,2.08
2023-02-17T14:39:53.053Z,2.38
2023-02-17T14:42:20.180Z,1.92
2023-02-17T14:44:47.597Z,2.00
2023-02-17T14:47:14.754Z,1.50
2023-02-17T14:49:41.904Z,2.55
2023-02-17T14:52:19.988Z,1.95
2023-02-17T14:54:47.134Z,1.77
2023-02-17T14:57:15.296Z,1.67
2023-02-17T14:59:42.429Z,1.90
2023-02-17T15:02:14.637Z,1.50
2023-02-17T15:04:41.862Z,1.70
2023-02-17T15:07:17.390Z,1.50
2023-02-17T15:09:48.667Z,1.50
2023-02-17T15:12:19.184Z,1.80
2023-02-17T15:14:49.612Z,1.45
2023-02-17T15:17:17.193Z,2.13
2023-02-17T15:19:44.944Z,2.22
2023-02-17T15:22:13.361Z,1.92
2023-02-17T15:24:40.853Z,1.70
2023-02-17T15:27:08.233Z,1.75
2023-02-17T15:29:35.360Z,1.27
2023-02-17T15:32:04.619Z,2.05
2023-02-17T15:34:33.296Z,2.25
2023-02-17T15:37:01.278Z,2.03
2023-02-17T15:39:28.539Z,1.50
2023-02-17T15:41:56.500Z,1.95
2023-02-17T15:44:25.133Z,2.10
2023-02-17T15:46:53.566Z,2.35
2023-02-17T15:49:20.822Z,1.63
2023-02-17T15:51:47.987Z,1.83
2023-02-17T15:54:19.072Z,1.58
2023-02-17T15:56:47.737Z,1.80
2023-02-17T15:59:33.773Z,2.10
2023-02-17T16:02:04.372Z,1.80
2023-02-17T16:04:31.489Z,2.65
2023-02-17T16:06:58.583Z,1.85
2023-02-17T16:09:25.758Z,1.67
2023-02-17T16:11:55.932Z,2.17
2023-02-17T16:14:28.228Z,2.00
2023-02-17T16:16:56.232Z,2.08
2023-02-17T16:19:23.572Z,1.92
2023-02-17T16:21:50.686Z,3.00
2023-02-17T16:24:17.812Z,2.20
2023-02-17T16:26:45.051Z,2.20
2023-02-17T16:29:17.123Z,2.13
2023-02-17T16:31:44.646Z,1.70
2023-02-17T16:34:35.028Z,2.70
2023-02-17T16:37:10.667Z,2.08
2023-02-17T16:39:39.347Z,1.60
2023-02-17T16:42:06.459Z,2.25
2023-02-17T16:44:33.670Z,2.08
2023-02-17T16:47:02.572Z,2.25
2023-02-17T16:49:35.904Z,1.58
2023-02-17T16:52:07.303Z,1.77
2023-02-17T16:54:35.865Z,1.50
2023-02-17T16:57:03.144Z,2.13
2023-02-17T16:59:30.239Z,2.00
2023-02-17T17:01:57.639Z,1.90
2023-02-17T17:04:24.747Z,1.77
2023-02-17T17:06:52.364Z,2.00
2023-02-17T17:09:21.396Z,1.73
2023-02-17T17:11:48.507Z,1.55
2023-02-17T17:14:15.889Z,1.42
2023-02-17T17:16:45.447Z,1.60
2023-02-17T17:19:13.706Z,2.03
2023-02-17T17:21:40.812Z,2.00
2023-02-17T17:24:07.964Z,2.03
2023-02-17T17:26:39.902Z,2.08
2023-02-17T17:31:34.335Z,1.63
2023-02-17T17:34:01.480Z,1.30
2023-02-17T17:36:32.870Z,1.88
2023-02-17T17:39:00.601Z,1.17
2023-02-17T17:41:28.451Z,1.20
2023-02-17T17:43:56.016Z,1.02
2023-02-17T17:46:24.926Z,1.25
2023-02-17T17:48:52.182Z,0.95
2023-02-17T17:51:21.063Z,1.30
2023-02-17T17:53:48.637Z,1.13
2023-02-17T17:56:26.223Z,1.13
2023-02-17T17:58:53.890Z,1.70
2023-02-17T18:01:22.102Z,1.20
2023-02-17T18:03:49.762Z,1.33
2023-02-17T18:06:19.081Z,1.20
2023-02-17T18:08:47.339Z,1.20
2023-02-17T18:11:18.237Z,1.40
2023-02-17T18:13:46.756Z,2.38
2023-02-17T18:16:14.454Z,1.63
2023-02-17T18:18:41.801Z,0.93
2023-02-17T18:21:08.948Z,1.10
2023-02-17T18:23:36.100Z,1.25
2023-02-17T18:26:03.244Z,1.17
2023-02-17T18:28:30.342Z,1.33
2023-02-17T18:30:57.589Z,1.95
2023-02-17T18:33:24.732Z,0.90
2023-02-17T18:35:51.958Z,1.30
2023-02-17T18:38:19.076Z,1.00
2023-02-17T18:40:46.191Z,1.02
2023-02-17T18:43:14.748Z,1.30
2023-02-17T18:45:41.884Z,1.35
2023-02-17T18:48:08.982Z,1.63
2023-02-17T18:50:36.618Z,1.67
2023-02-17T18:53:05.370Z,1.38
2023-02-17T18:55:32.580Z,1.08
2023-02-17T18:57:59.697Z,1.25
2023-02-17T19:00:26.893Z,1.35
2023-02-17T19:02:54.054Z,1.40
2023-02-17T19:05:21.285Z,1.10
2023-02-17T19:07:48.481Z,1.23
2023-02-17T19:10:16.101Z,1.02
2023-02-17T19:12:43.259Z,1.58
2023-02-17T19:15:10.789Z,1.38
2023-02-17T19:17:37.883Z,1.33
2023-02-17T19:20:05.172Z,1.40
2023-02-17T19:22:35.186Z,1.48
2023-02-17T19:25:02.831Z,2.33
2023-02-17T19:27:30.093Z,2.20
2023-02-17T19:29:57.337Z,1.17
2023-02-17T19:32:24.455Z,1.42
2023-02-17T19:34:51.605Z,1.42
2023-02-17T19:37:18.729Z,0.95
2023-02-17T19:39:45.870Z,1.75
2023-02-17T19:42:12.996Z,1.70
2023-02-17T19:44:40.059Z,2.00
2023-02-17T19:47:07.207Z,1.30
2023-02-17T19:49:34.286Z,1.10
2023-02-17T19:52:01.460Z,1.73
2023-02-17T19:54:28.567Z,1.40
2023-02-17T19:56:55.645Z,1.45
2023-02-17T19:59:23.083Z,1.58
2023-02-17T20:01:50.387Z,1.40
2023-02-17T20:04:17.632Z,1.73
2023-02-17T20:06:46.211Z,2.38
2023-02-17T20:09:20.872Z,1.20
2023-02-17T20:11:48.699Z,1.05
2023-02-17T20:14:16.093Z,1.70
2023-02-17T20:16:43.221Z,1.10
2023-02-17T20:19:10.339Z,1.98
2023-02-17T20:21:38.546Z,1.20
2023-02-17T20:24:06.159Z,1.33
2023-02-17T20:26:35.559Z,1.20
2023-02-17T20:29:03.027Z,1.17
2023-02-17T20:31:30.313Z,1.30
2023-02-17T20:33:57.503Z,1.98
2023-02-17T20:36:25.118Z,1.90
2023-02-17T20:38:52.294Z,3.00
2023-02-17T20:41:20.688Z,1.95
2023-02-17T20:43:47.777Z,2.65
2023-02-17T20:46:17.583Z,2.17
2023-02-17T20:48:44.873Z,2.22
2023-02-17T20:51:11.958Z,3.00
2023-02-17T20:53:39.241Z,2.50
2023-02-17T20:56:16.846Z,2.53
2023-02-17T20:58:44.348Z,2.25
2023-02-17T21:01:11.524Z,2.35
2023-02-17T21:03:38.837Z,1.80
2023-02-17T21:06:06.999Z,1.80
2023-02-17T21:08:34.361Z,2.22
2023-02-17T21:11:01.503Z,2.55
2023-02-17T21:13:29.856Z,2.40
2023-02-17T21:15:57.021Z,1.88
2023-02-17T21:18:24.054Z,2.20
2023-02-17T21:20:51.148Z,1.83
2023-02-17T21:23:18.270Z,2.22
2023-02-17T21:25:46.206Z,1.88
2023-02-17T21:28:14.356Z,2.08
2023-02-17T21:30:46.174Z,1.63
2023-02-17T21:33:13.300Z,2.17
2023-02-17T21:35:40.538Z,1.88
2023-02-17T21:38:07.614Z,2.45
2023-02-17T21:40:34.686Z,1.90
2023-02-17T21:43:20.430Z,1.70
2023-02-17T21:45:47.875Z,1.35
2023-02-17T21:48:15.030Z,1.60
2023-02-17T21:50:42.110Z,1.58
2023-02-17T21:53:09.275Z,1.02
2023-02-17T21:55:36.426Z,1.55
2023-02-17T21:58:03.564Z,2.03
2023-02-17T22:00:30.783Z,1.42
2023-02-17T22:02:57.884Z,1.70
2023-02-17T22:05:24.975Z,1.48
2023-02-17T22:07:52.105Z,2.05
2023-02-17T22:10:19.265Z,1.60
2023-02-17T22:12:46.436Z,1.33
2023-02-17T22:15:16.118Z,1.98
2023-02-17T22:17:43.495Z,1.80
2023-02-17T22:20:10.685Z,1.52
2023-02-17T22:22:37.798Z,3.00
2023-02-17T22:25:05.036Z,2.50
2023-02-17T22:27:33.137Z,3.25
2023-02-17T22:30:00.328Z,1.95
2023-02-17T22:32:27.570Z,2.13
2023-02-17T22:34:54.706Z,2.35
2023-02-17T22:37:21.833Z,2.58
2023-02-17T22:39:52.466Z,2.13
2023-02-17T22:42:19.556Z,2.22
2023-02-17T22:44:46.679Z,1.58
2023-02-17T22:47:14.447Z,2.50
2023-02-17T22:49:41.996Z,1.85
2023-02-17T22:52:09.352Z,2.03
2023-02-17T22:54:37.060Z,1.88
2023-02-17T22:57:04.156Z,1.58
2023-02-17T22:59:31.251Z,1.90
2023-02-17T23:02:01.187Z,1.67
2023-02-17T23:04:28.920Z,1.85
2023-02-17T23:06:56.140Z,2.08
2023-02-17T23:09:23.969Z,1.48
2023-02-17T23:11:51.381Z,1.70
2023-02-17T23:14:20.740Z,1.85
2023-02-17T23:16:48.032Z,1.30
2023-02-17T23:19:17.917Z,1.83
2023-02-17T23:21:46.530Z,1.35
2023-02-17T23:24:14.741Z,1.92
2023-02-17T23:26:41.850Z,1.58
2023-02-17T23:29:09.635Z,2.08
2023-02-17T23:31:38.025Z,1.83
2023-02-17T23:34:05.773Z,1.42
2023-02-17T23:36:33.031Z,1.73
2023-02-17T23:39:00.598Z,1.60
2023-02-17T23:41:27.811Z,1.60
2023-02-17T23:43:55.136Z,2.35
2023-02-17T23:46:22.416Z,2.70
2023-02-17T23:48:49.534Z,2.10
2023-02-17T23:51:17.734Z,2.58
2023-02-17T23:53:45.267Z,2.22
2023-02-17T23:56:38.900Z,2.20
2023-02-17T23:59:06.501Z,1.90
